Terminal Aerodrome Forecast
Issued by NWS

Home | Current Version | Previous Version | Text Only | Print | Product List | Glossary On
Versions: 1 2 3 4 5 6 7 8 9 10 11 12 13 14
621
FTPA31 PHFO 241127
TAFHOG
TAF
PHOG 241127Z 2412/2512 04012KT P6SM FEW050
     FM241900 05020G26KT P6SM FEW030 SCT050
     FM250600 06012KT P6SM FEW030 SCT050
      AMD LTD TO VIS AND WIND TIL 241600=

USA.gov is the U.S. government's official web portal to all federal, state and local government web resources and services.